sensor_id;sensor_type;location;lat;lon;timestamp;P1;durP1;ratioP1;P2;durP2;ratioP2
21032;SDS011;10675;47.976;7.824;2024-02-16T00:00:07;6.40;;;2.60;;
21032;SDS011;10675;47.976;7.824;2024-02-16T00:02:36;3.30;;;1.67;;
21032;SDS011;10675;47.976;7.824;2024-02-16T00:05:02;6.57;;;2.57;;
21032;SDS011;10675;47.976;7.824;2024-02-16T00:07:28;3.77;;;2.17;;
21032;SDS011;10675;47.976;7.824;2024-02-16T00:09:54;3.13;;;1.80;;
21032;SDS011;10675;47.976;7.824;2024-02-16T00:12:19;5.40;;;1.93;;
21032;SDS011;10675;47.976;7.824;2024-02-16T00:14:45;2.57;;;1.67;;
21032;SDS011;10675;47.976;7.824;2024-02-16T00:17:11;1.53;;;1.43;;
21032;SDS011;10675;47.976;7.824;2024-02-16T00:19:37;4.03;;;1.90;;
21032;SDS011;10675;47.976;7.824;2024-02-16T00:22:02;3.07;;;2.00;;
21032;SDS011;10675;47.976;7.824;2024-02-16T00:24:28;4.77;;;1.63;;
21032;SDS011;10675;47.976;7.824;2024-02-16T00:26:56;2.10;;;1.70;;
21032;SDS011;10675;47.976;7.824;2024-02-16T00:29:22;2.23;;;1.77;;
21032;SDS011;10675;47.976;7.824;2024-02-16T00:31:47;5.20;;;1.60;;
21032;SDS011;10675;47.976;7.824;2024-02-16T00:34:13;2.57;;;1.70;;
21032;SDS011;10675;47.976;7.824;2024-02-16T00:36:39;2.27;;;1.77;;
21032;SDS011;10675;47.976;7.824;2024-02-16T00:39:05;4.73;;;1.50;;
21032;SDS011;10675;47.976;7.824;2024-02-16T00:41:30;2.20;;;1.57;;
21032;SDS011;10675;47.976;7.824;2024-02-16T00:43:56;2.40;;;1.60;;
21032;SDS011;10675;47.976;7.824;2024-02-16T00:46:22;1.60;;;1.50;;
21032;SDS011;10675;47.976;7.824;2024-02-16T00:48:51;2.07;;;1.50;;
21032;SDS011;10675;47.976;7.824;2024-02-16T00:51:18;1.37;;;1.27;;
21032;SDS011;10675;47.976;7.824;2024-02-16T00:53:43;1.27;;;1.17;;
21032;SDS011;10675;47.976;7.824;2024-02-16T00:56:09;1.37;;;1.10;;
21032;SDS011;10675;47.976;7.824;2024-02-16T00:58:35;3.87;;;1.30;;
21032;SDS011;10675;47.976;7.824;2024-02-16T01:01:01;1.60;;;1.30;;
21032;SDS011;10675;47.976;7.824;2024-02-16T01:03:28;2.40;;;1.70;;
21032;SDS011;10675;47.976;7.824;2024-02-16T01:05:54;2.60;;;1.50;;
21032;SDS011;10675;47.976;7.824;2024-02-16T01:08:20;1.57;;;1.13;;
21032;SDS011;10675;47.976;7.824;2024-02-16T01:10:45;1.63;;;1.37;;
21032;SDS011;10675;47.976;7.824;2024-02-16T01:13:12;2.70;;;1.33;;
21032;SDS011;10675;47.976;7.824;2024-02-16T01:15:37;1.60;;;1.33;;
21032;SDS011;10675;47.976;7.824;2024-02-16T01:18:03;2.67;;;1.40;;
21032;SDS011;10675;47.976;7.824;2024-02-16T01:20:29;1.47;;;1.37;;
21032;SDS011;10675;47.976;7.824;2024-02-16T01:22:56;2.20;;;1.60;;
21032;SDS011;10675;47.976;7.824;2024-02-16T01:25:22;2.13;;;1.47;;
21032;SDS011;10675;47.976;7.824;2024-02-16T01:27:48;1.40;;;1.30;;
21032;SDS011;10675;47.976;7.824;2024-02-16T01:30:13;2.53;;;1.70;;
21032;SDS011;10675;47.976;7.824;2024-02-16T01:32:40;1.50;;;1.40;;
21032;SDS011;10675;47.976;7.824;2024-02-16T01:35:06;1.73;;;1.13;;
21032;SDS011;10675;47.976;7.824;2024-02-16T01:37:32;1.40;;;1.30;;
21032;SDS011;10675;47.976;7.824;2024-02-16T01:39:57;1.37;;;1.20;;
21032;SDS011;10675;47.976;7.824;2024-02-16T01:42:23;1.57;;;1.00;;
21032;SDS011;10675;47.976;7.824;2024-02-16T01:44:49;1.20;;;1.10;;
21032;SDS011;10675;47.976;7.824;2024-02-16T01:47:15;1.50;;;1.30;;
21032;SDS011;10675;47.976;7.824;2024-02-16T01:49:43;1.23;;;1.10;;
21032;SDS011;10675;47.976;7.824;2024-02-16T01:52:09;0.80;;;0.80;;
21032;SDS011;10675;47.976;7.824;2024-02-16T01:54:35;1.20;;;1.10;;
21032;SDS011;10675;47.976;7.824;2024-02-16T01:57:02;2.67;;;1.10;;
21032;SDS011;10675;47.976;7.824;2024-02-16T01:59:29;1.87;;;1.00;;
21032;SDS011;10675;47.976;7.824;2024-02-16T02:01:54;2.43;;;0.90;;
21032;SDS011;10675;47.976;7.824;2024-02-16T02:04:20;0.80;;;0.80;;
21032;SDS011;10675;47.976;7.824;2024-02-16T02:06:46;2.03;;;1.20;;
21032;SDS011;10675;47.976;7.824;2024-02-16T02:09:11;2.20;;;0.90;;
21032;SDS011;10675;47.976;7.824;2024-02-16T02:11:37;1.10;;;1.00;;
21032;SDS011;10675;47.976;7.824;2024-02-16T02:14:02;1.57;;;0.83;;
21032;SDS011;10675;47.976;7.824;2024-02-16T02:16:28;2.63;;;1.10;;
21032;SDS011;10675;47.976;7.824;2024-02-16T02:18:54;3.20;;;1.00;;
21032;SDS011;10675;47.976;7.824;2024-02-16T02:21:19;0.87;;;0.80;;
21032;SDS011;10675;47.976;7.824;2024-02-16T02:23:45;1.17;;;1.07;;
21032;SDS011;10675;47.976;7.824;2024-02-16T02:26:13;3.13;;;1.17;;
21032;SDS011;10675;47.976;7.824;2024-02-16T02:28:39;1.37;;;1.10;;
21032;SDS011;10675;47.976;7.824;2024-02-16T02:31:04;2.00;;;1.00;;
21032;SDS011;10675;47.976;7.824;2024-02-16T02:33:30;1.50;;;1.10;;
21032;SDS011;10675;47.976;7.824;2024-02-16T02:35:56;2.57;;;1.10;;
21032;SDS011;10675;47.976;7.824;2024-02-16T02:38:21;1.73;;;1.00;;
21032;SDS011;10675;47.976;7.824;2024-02-16T02:40:47;1.63;;;1.20;;
21032;SDS011;10675;47.976;7.824;2024-02-16T02:43:12;1.93;;;1.20;;
21032;SDS011;10675;47.976;7.824;2024-02-16T02:45:39;2.77;;;1.30;;
21032;SDS011;10675;47.976;7.824;2024-02-16T02:48:04;1.13;;;1.03;;
21032;SDS011;10675;47.976;7.824;2024-02-16T02:50:30;2.30;;;1.10;;
21032;SDS011;10675;47.976;7.824;2024-02-16T02:52:56;1.20;;;1.10;;
21032;SDS011;10675;47.976;7.824;2024-02-16T02:55:22;1.10;;;1.00;;
21032;SDS011;10675;47.976;7.824;2024-02-16T02:57:47;0.93;;;0.93;;
21032;SDS011;10675;47.976;7.824;2024-02-16T03:00:13;1.13;;;1.03;;
21032;SDS011;10675;47.976;7.824;2024-02-16T03:02:40;1.30;;;1.00;;
21032;SDS011;10675;47.976;7.824;2024-02-16T03:05:06;2.30;;;1.20;;
21032;SDS011;10675;47.976;7.824;2024-02-16T03:07:32;3.47;;;1.10;;
21032;SDS011;10675;47.976;7.824;2024-02-16T03:09:58;1.10;;;1.00;;
21032;SDS011;10675;47.976;7.824;2024-02-16T03:12:24;1.13;;;1.03;;
21032;SDS011;10675;47.976;7.824;2024-02-16T03:14:49;3.90;;;1.20;;
21032;SDS011;10675;47.976;7.824;2024-02-16T03:17:15;1.23;;;1.13;;
21032;SDS011;10675;47.976;7.824;2024-02-16T03:19:40;1.10;;;1.00;;
21032;SDS011;10675;47.976;7.824;2024-02-16T03:22:06;1.83;;;1.00;;
21032;SDS011;10675;47.976;7.824;2024-02-16T03:24:32;1.63;;;1.07;;
21032;SDS011;10675;47.976;7.824;2024-02-16T03:26:57;1.57;;;0.97;;
21032;SDS011;10675;47.976;7.824;2024-02-16T03:29:23;2.13;;;1.10;;
21032;SDS011;10675;47.976;7.824;2024-02-16T03:31:49;0.60;;;0.60;;
21032;SDS011;10675;47.976;7.824;2024-02-16T03:34:15;2.27;;;0.90;;
21032;SDS011;10675;47.976;7.824;2024-02-16T03:36:40;1.20;;;1.10;;
21032;SDS011;10675;47.976;7.824;2024-02-16T03:39:06;1.33;;;1.20;;
21032;SDS011;10675;47.976;7.824;2024-02-16T03:41:34;1.97;;;1.17;;
21032;SDS011;10675;47.976;7.824;2024-02-16T03:43:59;0.93;;;0.77;;
21032;SDS011;10675;47.976;7.824;2024-02-16T03:46:25;2.63;;;1.10;;
21032;SDS011;10675;47.976;7.824;2024-02-16T03:48:51;1.17;;;1.07;;
21032;SDS011;10675;47.976;7.824;2024-02-16T03:51:17;1.10;;;1.00;;
21032;SDS011;10675;47.976;7.824;2024-02-16T03:53:42;1.10;;;1.00;;
21032;SDS011;10675;47.976;7.824;2024-02-16T03:56:09;1.00;;;0.90;;
21032;SDS011;10675;47.976;7.824;2024-02-16T03:58:37;1.50;;;1.03;;
21032;SDS011;10675;47.976;7.824;2024-02-16T04:01:03;0.83;;;0.83;;
21032;SDS011;10675;47.976;7.824;2024-02-16T04:03:30;1.40;;;1.30;;
21032;SDS011;10675;47.976;7.824;2024-02-16T04:05:55;0.97;;;0.97;;
21032;SDS011;10675;47.976;7.824;2024-02-16T04:08:21;1.40;;;1.00;;
21032;SDS011;10675;47.976;7.824;2024-02-16T04:10:47;2.23;;;1.17;;
21032;SDS011;10675;47.976;7.824;2024-02-16T04:13:12;2.07;;;1.17;;
21032;SDS011;10675;47.976;7.824;2024-02-16T04:15:38;1.87;;;1.23;;
21032;SDS011;10675;47.976;7.824;2024-02-16T04:18:04;1.50;;;0.90;;
21032;SDS011;10675;47.976;7.824;2024-02-16T04:20:30;3.60;;;1.10;;
21032;SDS011;10675;47.976;7.824;2024-02-16T04:22:55;2.50;;;1.20;;
21032;SDS011;10675;47.976;7.824;2024-02-16T04:25:21;2.57;;;1.27;;
21032;SDS011;10675;47.976;7.824;2024-02-16T04:27:46;1.90;;;0.90;;
21032;SDS011;10675;47.976;7.824;2024-02-16T04:30:12;2.00;;;1.37;;
21032;SDS011;10675;47.976;7.824;2024-02-16T04:32:37;1.37;;;1.00;;
21032;SDS011;10675;47.976;7.824;2024-02-16T04:35:03;1.30;;;1.20;;
21032;SDS011;10675;47.976;7.824;2024-02-16T04:37:29;1.40;;;0.90;;
21032;SDS011;10675;47.976;7.824;2024-02-16T04:39:55;1.73;;;1.03;;
21032;SDS011;10675;47.976;7.824;2024-02-16T04:42:20;1.23;;;1.07;;
21032;SDS011;10675;47.976;7.824;2024-02-16T04:44:46;1.53;;;0.90;;
21032;SDS011;10675;47.976;7.824;2024-02-16T04:47:11;2.30;;;1.10;;
21032;SDS011;10675;47.976;7.824;2024-02-16T04:49:37;2.13;;;1.37;;
21032;SDS011;10675;47.976;7.824;2024-02-16T04:52:03;2.23;;;1.10;;
21032;SDS011;10675;47.976;7.824;2024-02-16T04:54:29;1.93;;;1.23;;
21032;SDS011;10675;47.976;7.824;2024-02-16T04:56:54;2.77;;;1.13;;
21032;SDS011;10675;47.976;7.824;2024-02-16T04:59:20;1.27;;;1.17;;
21032;SDS011;10675;47.976;7.824;2024-02-16T05:01:46;1.40;;;1.20;;
21032;SDS011;10675;47.976;7.824;2024-02-16T05:04:12;1.00;;;0.93;;
21032;SDS011;10675;47.976;7.824;2024-02-16T05:06:39;1.13;;;0.90;;
21032;SDS011;10675;47.976;7.824;2024-02-16T05:09:08;1.63;;;1.20;;
21032;SDS011;10675;47.976;7.824;2024-02-16T05:11:33;1.10;;;1.00;;
21032;SDS011;10675;47.976;7.824;2024-02-16T05:13:59;4.03;;;1.23;;
21032;SDS011;10675;47.976;7.824;2024-02-16T05:16:25;2.30;;;1.23;;
21032;SDS011;10675;47.976;7.824;2024-02-16T05:18:51;2.23;;;1.30;;
21032;SDS011;10675;47.976;7.824;2024-02-16T05:21:17;1.70;;;1.10;;
21032;SDS011;10675;47.976;7.824;2024-02-16T05:23:43;2.27;;;1.37;;
21032;SDS011;10675;47.976;7.824;2024-02-16T05:26:08;3.00;;;1.40;;
21032;SDS011;10675;47.976;7.824;2024-02-16T05:28:34;3.63;;;1.30;;
21032;SDS011;10675;47.976;7.824;2024-02-16T05:31:06;1.27;;;1.13;;
21032;SDS011;10675;47.976;7.824;2024-02-16T05:33:42;1.83;;;1.10;;
21032;SDS011;10675;47.976;7.824;2024-02-16T05:36:09;2.77;;;1.50;;
21032;SDS011;10675;47.976;7.824;2024-02-16T05:38:35;1.57;;;1.43;;
21032;SDS011;10675;47.976;7.824;2024-02-16T05:41:06;2.67;;;1.30;;
21032;SDS011;10675;47.976;7.824;2024-02-16T05:43:36;1.30;;;1.20;;
21032;SDS011;10675;47.976;7.824;2024-02-16T05:46:03;1.50;;;1.40;;
21032;SDS011;10675;47.976;7.824;2024-02-16T05:48:31;2.17;;;1.53;;
21032;SDS011;10675;47.976;7.824;2024-02-16T05:51:03;2.20;;;1.50;;
21032;SDS011;10675;47.976;7.824;2024-02-16T05:53:30;1.90;;;1.37;;
21032;SDS011;10675;47.976;7.824;2024-02-16T05:55:56;2.63;;;1.33;;
21032;SDS011;10675;47.976;7.824;2024-02-16T05:58:23;3.10;;;1.50;;
21032;SDS011;10675;47.976;7.824;2024-02-16T06:00:49;2.80;;;1.50;;
21032;SDS011;10675;47.976;7.824;2024-02-16T06:03:14;1.37;;;1.27;;
21032;SDS011;10675;47.976;7.824;2024-02-16T06:05:40;2.07;;;1.23;;
21032;SDS011;10675;47.976;7.824;2024-02-16T06:08:06;1.97;;;1.50;;
21032;SDS011;10675;47.976;7.824;2024-02-16T06:10:32;1.67;;;1.30;;
21032;SDS011;10675;47.976;7.824;2024-02-16T06:12:58;1.97;;;1.50;;
21032;SDS011;10675;47.976;7.824;2024-02-16T06:15:24;5.67;;;1.70;;
21032;SDS011;10675;47.976;7.824;2024-02-16T06:17:50;1.53;;;1.30;;
21032;SDS011;10675;47.976;7.824;2024-02-16T06:20:16;1.40;;;1.30;;
21032;SDS011;10675;47.976;7.824;2024-02-16T06:22:41;1.27;;;1.17;;
21032;SDS011;10675;47.976;7.824;2024-02-16T06:25:07;2.20;;;1.40;;
21032;SDS011;10675;47.976;7.824;2024-02-16T06:27:33;1.87;;;1.37;;
21032;SDS011;10675;47.976;7.824;2024-02-16T06:29:59;2.00;;;1.37;;
21032;SDS011;10675;47.976;7.824;2024-02-16T06:32:25;1.57;;;1.40;;
21032;SDS011;10675;47.976;7.824;2024-02-16T06:34:51;2.10;;;1.50;;
21032;SDS011;10675;47.976;7.824;2024-02-16T06:37:18;1.53;;;1.03;;
21032;SDS011;10675;47.976;7.824;2024-02-16T06:39:44;4.00;;;1.57;;
21032;SDS011;10675;47.976;7.824;2024-02-16T06:42:10;4.37;;;1.63;;
21032;SDS011;10675;47.976;7.824;2024-02-16T06:44:38;1.70;;;1.43;;
21032;SDS011;10675;47.976;7.824;2024-02-16T06:47:05;4.67;;;1.37;;
21032;SDS011;10675;47.976;7.824;2024-02-16T06:49:30;1.40;;;1.30;;
21032;SDS011;10675;47.976;7.824;2024-02-16T06:51:56;2.00;;;1.50;;
21032;SDS011;10675;47.976;7.824;2024-02-16T06:54:22;3.07;;;1.50;;
21032;SDS011;10675;47.976;7.824;2024-02-16T06:56:49;3.23;;;1.20;;
21032;SDS011;10675;47.976;7.824;2024-02-16T06:59:16;3.77;;;1.50;;
21032;SDS011;10675;47.976;7.824;2024-02-16T07:01:42;3.00;;;1.90;;
21032;SDS011;10675;47.976;7.824;2024-02-16T07:04:07;5.73;;;2.43;;
21032;SDS011;10675;47.976;7.824;2024-02-16T07:06:34;4.43;;;2.00;;
21032;SDS011;10675;47.976;7.824;2024-02-16T07:09:00;3.23;;;2.00;;
21032;SDS011;10675;47.976;7.824;2024-02-16T07:11:25;3.37;;;2.33;;
21032;SDS011;10675;47.976;7.824;2024-02-16T07:13:51;4.10;;;2.20;;
21032;SDS011;10675;47.976;7.824;2024-02-16T07:16:16;3.20;;;1.60;;
21032;SDS011;10675;47.976;7.824;2024-02-16T07:18:43;1.73;;;1.40;;
21032;SDS011;10675;47.976;7.824;2024-02-16T07:21:09;1.50;;;1.00;;
21032;SDS011;10675;47.976;7.824;2024-02-16T07:23:35;1.10;;;1.00;;
21032;SDS011;10675;47.976;7.824;2024-02-16T07:26:00;2.50;;;1.10;;
21032;SDS011;10675;47.976;7.824;2024-02-16T07:28:26;3.07;;;1.40;;
21032;SDS011;10675;47.976;7.824;2024-02-16T07:30:52;1.43;;;1.27;;
21032;SDS011;10675;47.976;7.824;2024-02-16T07:33:18;1.93;;;1.70;;
21032;SDS011;10675;47.976;7.824;2024-02-16T07:35:43;2.13;;;1.53;;
21032;SDS011;10675;47.976;7.824;2024-02-16T07:38:09;1.17;;;1.00;;
21032;SDS011;10675;47.976;7.824;2024-02-16T07:40:35;1.20;;;1.10;;
21032;SDS011;10675;47.976;7.824;2024-02-16T07:43:01;1.80;;;1.20;;
21032;SDS011;10675;47.976;7.824;2024-02-16T07:45:27;0.93;;;0.90;;
21032;SDS011;10675;47.976;7.824;2024-02-16T07:47:53;2.37;;;1.10;;
21032;SDS011;10675;47.976;7.824;2024-02-16T07:50:20;2.27;;;1.83;;
21032;SDS011;10675;47.976;7.824;2024-02-16T07:52:46;0.80;;;0.77;;
21032;SDS011;10675;47.976;7.824;2024-02-16T07:55:12;1.57;;;1.30;;
21032;SDS011;10675;47.976;7.824;2024-02-16T07:57:38;1.97;;;1.30;;
21032;SDS011;10675;47.976;7.824;2024-02-16T08:00:04;2.33;;;1.40;;
21032;SDS011;10675;47.976;7.824;2024-02-16T08:02:30;1.60;;;1.33;;
21032;SDS011;10675;47.976;7.824;2024-02-16T08:04:56;2.10;;;1.43;;
21032;SDS011;10675;47.976;7.824;2024-02-16T08:07:21;4.07;;;1.63;;
21032;SDS011;10675;47.976;7.824;2024-02-16T08:09:47;5.00;;;1.60;;
21032;SDS011;10675;47.976;7.824;2024-02-16T08:12:13;1.30;;;1.20;;
21032;SDS011;10675;47.976;7.824;2024-02-16T08:14:39;1.10;;;1.10;;
21032;SDS011;10675;47.976;7.824;2024-02-16T08:17:05;2.33;;;1.23;;
21032;SDS011;10675;47.976;7.824;2024-02-16T08:19:35;1.60;;;1.00;;
21032;SDS011;10675;47.976;7.824;2024-02-16T08:22:02;2.47;;;1.20;;
21032;SDS011;10675;47.976;7.824;2024-02-16T08:24:29;2.23;;;1.30;;
21032;SDS011;10675;47.976;7.824;2024-02-16T08:26:56;1.13;;;1.00;;
21032;SDS011;10675;47.976;7.824;2024-02-16T08:29:22;5.50;;;1.57;;
21032;SDS011;10675;47.976;7.824;2024-02-16T08:31:48;1.30;;;1.20;;
21032;SDS011;10675;47.976;7.824;2024-02-16T08:34:14;1.60;;;1.00;;
21032;SDS011;10675;47.976;7.824;2024-02-16T08:36:43;2.43;;;1.00;;
21032;SDS011;10675;47.976;7.824;2024-02-16T08:39:09;3.50;;;1.87;;
21032;SDS011;10675;47.976;7.824;2024-02-16T08:41:36;1.77;;;1.67;;
21032;SDS011;10675;47.976;7.824;2024-02-16T08:44:02;1.70;;;1.33;;
21032;SDS011;10675;47.976;7.824;2024-02-16T08:46:28;1.10;;;1.00;;
21032;SDS011;10675;47.976;7.824;2024-02-16T08:48:54;1.77;;;1.00;;
21032;SDS011;10675;47.976;7.824;2024-02-16T08:51:20;0.93;;;0.93;;
21032;SDS011;10675;47.976;7.824;2024-02-16T08:53:45;1.90;;;0.90;;
21032;SDS011;10675;47.976;7.824;2024-02-16T08:56:11;1.63;;;1.10;;
21032;SDS011;10675;47.976;7.824;2024-02-16T08:58:37;3.60;;;1.20;;
21032;SDS011;10675;47.976;7.824;2024-02-16T09:01:03;2.90;;;1.40;;
21032;SDS011;10675;47.976;7.824;2024-02-16T09:03:29;2.10;;;1.10;;
21032;SDS011;10675;47.976;7.824;2024-02-16T09:05:59;2.27;;;1.10;;
21032;SDS011;10675;47.976;7.824;2024-02-16T09:08:25;1.03;;;1.00;;
21032;SDS011;10675;47.976;7.824;2024-02-16T09:10:54;2.90;;;1.10;;
21032;SDS011;10675;47.976;7.824;2024-02-16T09:13:19;1.07;;;0.83;;
21032;SDS011;10675;47.976;7.824;2024-02-16T09:15:45;1.03;;;0.80;;
21032;SDS011;10675;47.976;7.824;2024-02-16T09:18:10;1.20;;;1.10;;
21032;SDS011;10675;47.976;7.824;2024-02-16T09:20:35;1.40;;;0.97;;
21032;SDS011;10675;47.976;7.824;2024-02-16T09:23:01;4.50;;;1.13;;
21032;SDS011;10675;47.976;7.824;2024-02-16T09:25:27;1.33;;;1.23;;
21032;SDS011;10675;47.976;7.824;2024-02-16T09:27:53;1.53;;;0.83;;
21032;SDS011;10675;47.976;7.824;2024-02-16T09:30:18;1.97;;;1.10;;
21032;SDS011;10675;47.976;7.824;2024-02-16T09:32:46;1.57;;;1.10;;
21032;SDS011;10675;47.976;7.824;2024-02-16T09:35:12;1.00;;;0.70;;
21032;SDS011;10675;47.976;7.824;2024-02-16T09:37:38;1.80;;;1.20;;
21032;SDS011;10675;47.976;7.824;2024-02-16T09:40:05;1.30;;;0.87;;
21032;SDS011;10675;47.976;7.824;2024-02-16T09:42:31;2.97;;;1.30;;
21032;SDS011;10675;47.976;7.824;2024-02-16T09:45:00;2.17;;;1.43;;
21032;SDS011;10675;47.976;7.824;2024-02-16T09:47:25;1.73;;;1.10;;
21032;SDS011;10675;47.976;7.824;2024-02-16T09:49:55;4.33;;;1.43;;
21032;SDS011;10675;47.976;7.824;2024-02-16T09:52:20;4.83;;;1.60;;
21032;SDS011;10675;47.976;7.824;2024-02-16T09:54:47;0.90;;;0.90;;
21032;SDS011;10675;47.976;7.824;2024-02-16T09:57:16;2.07;;;1.20;;
21032;SDS011;10675;47.976;7.824;2024-02-16T09:59:41;2.43;;;1.00;;
21032;SDS011;10675;47.976;7.824;2024-02-16T10:02:07;1.07;;;1.07;;
21032;SDS011;10675;47.976;7.824;2024-02-16T10:04:33;3.07;;;1.27;;
21032;SDS011;10675;47.976;7.824;2024-02-16T10:06:59;1.40;;;1.23;;
21032;SDS011;10675;47.976;7.824;2024-02-16T10:09:25;1.67;;;1.37;;
21032;SDS011;10675;47.976;7.824;2024-02-16T10:11:54;1.40;;;1.13;;
21032;SDS011;10675;47.976;7.824;2024-02-16T10:14:19;2.13;;;0.97;;
21032;SDS011;10675;47.976;7.824;2024-02-16T10:16:46;3.00;;;1.60;;
21032;SDS011;10675;47.976;7.824;2024-02-16T10:19:13;2.73;;;1.30;;
21032;SDS011;10675;47.976;7.824;2024-02-16T10:21:39;2.37;;;1.17;;
21032;SDS011;10675;47.976;7.824;2024-02-16T10:24:09;3.60;;;1.40;;
21032;SDS011;10675;47.976;7.824;2024-02-16T10:26:36;1.23;;;1.13;;
21032;SDS011;10675;47.976;7.824;2024-02-16T10:29:03;1.43;;;1.07;;
21032;SDS011;10675;47.976;7.824;2024-02-16T10:31:30;6.00;;;1.37;;
21032;SDS011;10675;47.976;7.824;2024-02-16T10:33:57;3.27;;;1.23;;
21032;SDS011;10675;47.976;7.824;2024-02-16T10:36:24;2.73;;;1.00;;
21032;SDS011;10675;47.976;7.824;2024-02-16T10:38:51;1.90;;;1.20;;
21032;SDS011;10675;47.976;7.824;2024-02-16T10:41:18;2.97;;;1.20;;
21032;SDS011;10675;47.976;7.824;2024-02-16T10:43:46;1.90;;;1.00;;
21032;SDS011;10675;47.976;7.824;2024-02-16T10:46:14;1.77;;;1.27;;
21032;SDS011;10675;47.976;7.824;2024-02-16T10:48:41;2.10;;;1.40;;
21032;SDS011;10675;47.976;7.824;2024-02-16T10:51:07;2.10;;;1.53;;
21032;SDS011;10675;47.976;7.824;2024-02-16T10:53:34;2.60;;;2.10;;
21032;SDS011;10675;47.976;7.824;2024-02-16T10:56:01;4.47;;;2.30;;
21032;SDS011;10675;47.976;7.824;2024-02-16T10:58:27;4.67;;;2.20;;
21032;SDS011;10675;47.976;7.824;2024-02-16T11:00:54;2.87;;;1.23;;
21032;SDS011;10675;47.976;7.824;2024-02-16T11:03:21;3.40;;;1.30;;
21032;SDS011;10675;47.976;7.824;2024-02-16T11:05:49;1.50;;;1.40;;
21032;SDS011;10675;47.976;7.824;2024-02-16T11:08:16;2.00;;;1.40;;
21032;SDS011;10675;47.976;7.824;2024-02-16T11:10:55;4.20;;;1.70;;
21032;SDS011;10675;47.976;7.824;2024-02-16T11:13:28;3.57;;;2.13;;
21032;SDS011;10675;47.976;7.824;2024-02-16T11:15:58;2.07;;;1.30;;
21032;SDS011;10675;47.976;7.824;2024-02-16T11:18:24;2.57;;;1.70;;
21032;SDS011;10675;47.976;7.824;2024-02-16T11:20:50;5.07;;;1.97;;
21032;SDS011;10675;47.976;7.824;2024-02-16T11:23:19;2.47;;;1.47;;
21032;SDS011;10675;47.976;7.824;2024-02-16T11:25:52;4.17;;;1.60;;
21032;SDS011;10675;47.976;7.824;2024-02-16T11:28:17;3.27;;;1.43;;
21032;SDS011;10675;47.976;7.824;2024-02-16T11:30:43;1.17;;;1.00;;
21032;SDS011;10675;47.976;7.824;2024-02-16T11:33:12;3.30;;;1.30;;
21032;SDS011;10675;47.976;7.824;2024-02-16T11:35:37;1.67;;;1.30;;
21032;SDS011;10675;47.976;7.824;2024-02-16T11:38:05;1.77;;;1.27;;
21032;SDS011;10675;47.976;7.824;2024-02-16T11:40:32;2.30;;;1.43;;
21032;SDS011;10675;47.976;7.824;2024-02-16T11:42:58;2.53;;;1.40;;
21032;SDS011;10675;47.976;7.824;2024-02-16T11:45:25;2.73;;;1.33;;
21032;SDS011;10675;47.976;7.824;2024-02-16T11:47:51;3.33;;;1.30;;
21032;SDS011;10675;47.976;7.824;2024-02-16T11:50:27;1.30;;;0.97;;
21032;SDS011;10675;47.976;7.824;2024-02-16T11:52:53;2.63;;;1.20;;
21032;SDS011;10675;47.976;7.824;2024-02-16T11:55:19;3.03;;;1.33;;
21032;SDS011;10675;47.976;7.824;2024-02-16T11:57:45;3.93;;;1.40;;
21032;SDS011;10675;47.976;7.824;2024-02-16T12:00:15;1.30;;;1.20;;
21032;SDS011;10675;47.976;7.824;2024-02-16T12:02:41;3.80;;;1.53;;
21032;SDS011;10675;47.976;7.824;2024-02-16T12:05:06;3.30;;;1.30;;
21032;SDS011;10675;47.976;7.824;2024-02-16T12:07:33;5.60;;;1.40;;
21032;SDS011;10675;47.976;7.824;2024-02-16T12:10:01;2.63;;;1.67;;
21032;SDS011;10675;47.976;7.824;2024-02-16T12:12:30;1.33;;;1.23;;
21032;SDS011;10675;47.976;7.824;2024-02-16T12:14:56;4.17;;;1.30;;
21032;SDS011;10675;47.976;7.824;2024-02-16T12:17:22;2.00;;;1.50;;
21032;SDS011;10675;47.976;7.824;2024-02-16T12:19:49;3.70;;;1.83;;
21032;SDS011;10675;47.976;7.824;2024-02-16T12:22:16;3.10;;;1.60;;
21032;SDS011;10675;47.976;7.824;2024-02-16T12:24:44;1.47;;;1.37;;
21032;SDS011;10675;47.976;7.824;2024-02-16T12:27:16;2.00;;;1.47;;
21032;SDS011;10675;47.976;7.824;2024-02-16T12:29:41;2.53;;;1.50;;
21032;SDS011;10675;47.976;7.824;2024-02-16T12:32:07;4.17;;;1.70;;
21032;SDS011;10675;47.976;7.824;2024-02-16T12:34:36;2.43;;;1.77;;
21032;SDS011;10675;47.976;7.824;2024-02-16T12:37:05;4.10;;;1.50;;
21032;SDS011;10675;47.976;7.824;2024-02-16T12:39:35;3.57;;;1.70;;
21032;SDS011;10675;47.976;7.824;2024-02-16T12:42:00;3.43;;;1.70;;
21032;SDS011;10675;47.976;7.824;2024-02-16T12:44:26;2.70;;;1.70;;
21032;SDS011;10675;47.976;7.824;2024-02-16T12:46:52;2.00;;;1.70;;
21032;SDS011;10675;47.976;7.824;2024-02-16T12:49:17;3.80;;;1.43;;
21032;SDS011;10675;47.976;7.824;2024-02-16T12:51:46;1.83;;;1.40;;
21032;SDS011;10675;47.976;7.824;2024-02-16T12:54:13;2.43;;;1.60;;
21032;SDS011;10675;47.976;7.824;2024-02-16T12:56:39;4.30;;;1.87;;
21032;SDS011;10675;47.976;7.824;2024-02-16T12:59:05;2.77;;;1.23;;
21032;SDS011;10675;47.976;7.824;2024-02-16T13:01:30;1.63;;;1.43;;
21032;SDS011;10675;47.976;7.824;2024-02-16T13:03:56;2.67;;;1.27;;
21032;SDS011;10675;47.976;7.824;2024-02-16T13:06:21;5.30;;;1.63;;
21032;SDS011;10675;47.976;7.824;2024-02-16T13:08:47;2.33;;;1.13;;
21032;SDS011;10675;47.976;7.824;2024-02-16T13:11:13;3.13;;;1.27;;
21032;SDS011;10675;47.976;7.824;2024-02-16T13:13:38;2.20;;;1.40;;
21032;SDS011;10675;47.976;7.824;2024-02-16T13:16:04;3.07;;;1.33;;
21032;SDS011;10675;47.976;7.824;2024-02-16T13:18:30;1.30;;;1.20;;
21032;SDS011;10675;47.976;7.824;2024-02-16T13:20:55;2.90;;;1.70;;
21032;SDS011;10675;47.976;7.824;2024-02-16T13:23:21;2.27;;;1.30;;
21032;SDS011;10675;47.976;7.824;2024-02-16T13:25:47;1.30;;;1.20;;
21032;SDS011;10675;47.976;7.824;2024-02-16T13:28:12;2.10;;;1.23;;
21032;SDS011;10675;47.976;7.824;2024-02-16T13:30:38;2.60;;;1.13;;
21032;SDS011;10675;47.976;7.824;2024-02-16T13:33:03;1.57;;;1.00;;
21032;SDS011;10675;47.976;7.824;2024-02-16T13:35:30;3.50;;;1.40;;
21032;SDS011;10675;47.976;7.824;2024-02-16T13:37:55;1.03;;;1.00;;
21032;SDS011;10675;47.976;7.824;2024-02-16T13:40:21;1.57;;;0.80;;
21032;SDS011;10675;47.976;7.824;2024-02-16T13:42:47;1.03;;;0.93;;
21032;SDS011;10675;47.976;7.824;2024-02-16T13:45:13;2.00;;;1.20;;
21032;SDS011;10675;47.976;7.824;2024-02-16T13:47:39;0.93;;;0.70;;
21032;SDS011;10675;47.976;7.824;2024-02-16T13:50:05;1.83;;;1.00;;
21032;SDS011;10675;47.976;7.824;2024-02-16T13:52:31;2.40;;;1.27;;
21032;SDS011;10675;47.976;7.824;2024-02-16T13:54:57;0.70;;;0.70;;
21032;SDS011;10675;47.976;7.824;2024-02-16T13:57:22;1.30;;;1.17;;
21032;SDS011;10675;47.976;7.824;2024-02-16T13:59:48;1.27;;;0.90;;
21032;SDS011;10675;47.976;7.824;2024-02-16T14:02:13;2.20;;;0.63;;
21032;SDS011;10675;47.976;7.824;2024-02-16T14:04:39;1.00;;;0.90;;
21032;SDS011;10675;47.976;7.824;2024-02-16T14:07:06;2.97;;;1.17;;
21032;SDS011;10675;47.976;7.824;2024-02-16T14:09:31;1.10;;;0.90;;
21032;SDS011;10675;47.976;7.824;2024-02-16T14:11:57;3.50;;;1.10;;
21032;SDS011;10675;47.976;7.824;2024-02-16T14:14:26;1.63;;;1.10;;
21032;SDS011;10675;47.976;7.824;2024-02-16T14:16:52;2.63;;;0.90;;
21032;SDS011;10675;47.976;7.824;2024-02-16T14:19:18;1.10;;;1.00;;
21032;SDS011;10675;47.976;7.824;2024-02-16T14:21:44;1.80;;;1.00;;
21032;SDS011;10675;47.976;7.824;2024-02-16T14:24:12;1.00;;;0.97;;
21032;SDS011;10675;47.976;7.824;2024-02-16T14:26:38;2.03;;;1.10;;
21032;SDS011;10675;47.976;7.824;2024-02-16T14:29:06;2.73;;;1.30;;
21032;SDS011;10675;47.976;7.824;2024-02-16T14:31:32;3.07;;;1.40;;
21032;SDS011;10675;47.976;7.824;2024-02-16T14:33:58;3.27;;;1.27;;
21032;SDS011;10675;47.976;7.824;2024-02-16T14:36:24;2.77;;;1.47;;
21032;SDS011;10675;47.976;7.824;2024-02-16T14:38:50;1.73;;;1.40;;
21032;SDS011;10675;47.976;7.824;2024-02-16T14:41:15;1.57;;;1.30;;